Time;durP1;ratioP1;P1;durP2;ratioP2;P2;SDS_P1;SDS_P2;PMS_P1;PMS_P2;Temp;Humidity;BMP_temperature;BMP_pressure;BME280_temperature;BME280_humidity;BME280_pressure;Samples;Min_cycle;Max_cycle;Signal;HPM_P1;HPM_P2
2021/03/11 00:00:41;;;;;;;15.65;8.88;;;;;;;;;;5016926;28;20099;-71
2021/03/11 00:03:08;;;;;;;14.82;9.40;;;;;;;;;;5017585;28;20122;-71
2021/03/11 00:05:35;;;;;;;14.23;9.20;;;;;;;;;;5000113;28;20046;-71
2021/03/11 00:08:02;;;;;;;12.20;8.75;;;;;;;;;;5034788;28;20551;-71
2021/03/11 00:10:28;;;;;;;14.15;8.82;;;;;;;;;;5000794;28;20057;-71
2021/03/11 00:12:54;;;;;;;16.15;9.45;;;;;;;;;;5016884;28;20103;-71
2021/03/11 00:15:22;;;;;;;15.57;9.27;;;;;;;;;;5020433;28;20570;-72
2021/03/11 00:17:48;;;;;;;13.68;8.40;;;;;;;;;;4997613;28;20077;-71
2021/03/11 00:20:17;;;;;;;15.23;8.80;;;;;;;;;;5015229;28;20567;-71
2021/03/11 00:22:46;;;;;;;13.73;9.25;;;;;;;;;;4982306;28;20058;-72
2021/03/11 00:25:14;;;;;;;13.68;9.38;;;;;;;;;;5014505;28;20042;-72
2021/03/11 00:27:40;;;;;;;14.90;8.77;;;;;;;;;;4997900;28;20133;-71
2021/03/11 00:30:08;;;;;;;16.08;9.25;;;;;;;;;;5015312;28;20050;-72
2021/03/11 00:32:34;;;;;;;14.35;8.90;;;;;;;;;;5013328;28;20054;-72
2021/03/11 00:35:01;;;;;;;14.45;9.35;;;;;;;;;;4997310;28;20085;-72
2021/03/11 00:37:27;;;;;;;16.17;9.18;;;;;;;;;;5014110;28;20050;-72
2021/03/11 00:39:53;;;;;;;14.40;8.60;;;;;;;;;;4997591;28;20460;-72
2021/03/11 00:42:20;;;;;;;16.65;9.40;;;;;;;;;;5014281;28;20054;-72
2021/03/11 00:44:46;;;;;;;13.70;8.93;;;;;;;;;;4996563;28;20425;-73
2021/03/11 00:47:12;;;;;;;14.30;9.65;;;;;;;;;;4995889;28;20045;-74
2021/03/11 00:49:38;;;;;;;13.35;9.43;;;;;;;;;;4980475;28;20058;-72
2021/03/11 00:52:05;;;;;;;15.48;9.07;;;;;;;;;;5013799;28;20603;-73
2021/03/11 00:54:31;;;;;;;16.13;9.15;;;;;;;;;;5013172;28;20058;-72
2021/03/11 00:56:57;;;;;;;16.90;9.75;;;;;;;;;;4995855;28;20485;-72
2021/03/11 00:59:23;;;;;;;13.90;9.20;;;;;;;;;;4996213;28;20045;-72
2021/03/11 01:01:49;;;;;;;13.77;8.30;;;;;;;;;;5013763;28;20072;-71
2021/03/11 01:04:16;;;;;;;12.38;8.25;;;;;;;;;;5030638;28;20412;-71
2021/03/11 01:06:42;;;;;;;13.48;8.60;;;;;;;;;;5015190;28;20077;-72
2021/03/11 01:09:08;;;;;;;13.55;8.65;;;;;;;;;;4999406;28;20049;-72
2021/03/11 01:11:34;;;;;;;13.98;8.65;;;;;;;;;;5055852;23;20067;-70
2021/03/11 01:14:00;;;;;;;15.43;8.27;;;;;;;;;;5072987;28;20048;-70
2021/03/11 01:16:27;;;;;;;17.48;8.77;;;;;;;;;;5072181;28;20040;-70
2021/03/11 01:18:53;;;;;;;14.27;8.63;;;;;;;;;;5072695;28;20080;-71
2021/03/11 01:21:19;;;;;;;13.63;8.82;;;;;;;;;;5070557;28;20075;-70
2021/03/11 01:23:45;;;;;;;13.85;9.00;;;;;;;;;;5052590;28;20052;-70
2021/03/11 01:26:12;;;;;;;14.15;8.95;;;;;;;;;;5051983;28;20045;-71
2021/03/11 01:28:38;;;;;;;16.25;9.75;;;;;;;;;;5052468;28;20057;-71
2021/03/11 01:31:04;;;;;;;13.30;8.80;;;;;;;;;;5052311;28;20083;-70
2021/03/11 01:33:30;;;;;;;13.45;8.68;;;;;;;;;;5053172;28;20213;-70
2021/03/11 01:35:56;;;;;;;11.52;8.32;;;;;;;;;;5051709;28;20053;-70
2021/03/11 01:38:22;;;;;;;15.85;8.80;;;;;;;;;;5052316;28;20072;-70
2021/03/11 01:40:48;;;;;;;14.77;8.80;;;;;;;;;;5051996;28;20103;-71
2021/03/11 01:43:14;;;;;;;17.50;9.02;;;;;;;;;;5052289;28;20110;-70
2021/03/11 01:45:41;;;;;;;13.55;8.63;;;;;;;;;;5051493;28;20075;-70
2021/03/11 01:48:08;;;;;;;16.20;8.77;;;;;;;;;;5052142;28;20057;-70
2021/03/11 01:50:34;;;;;;;15.88;8.82;;;;;;;;;;5051940;28;20099;-71
2021/03/11 01:53:00;;;;;;;12.38;8.13;;;;;;;;;;5051809;28;20118;-70
2021/03/11 01:55:27;;;;;;;13.50;7.82;;;;;;;;;;5066836;28;20102;-70
2021/03/11 01:57:54;;;;;;;13.23;8.48;;;;;;;;;;5051942;28;20083;-70
2021/03/11 02:00:21;;;;;;;12.45;8.52;;;;;;;;;;5067489;28;20107;-70
2021/03/11 02:02:49;;;;;;;12.65;7.90;;;;;;;;;;5051632;28;20157;-70
2021/03/11 02:05:16;;;;;;;11.93;7.43;;;;;;;;;;5051407;28;20049;-70
2021/03/11 02:07:43;;;;;;;13.77;8.30;;;;;;;;;;5051075;28;20049;-70
2021/03/11 02:10:10;;;;;;;13.98;7.93;;;;;;;;;;5051230;28;20110;-70
2021/03/11 02:13:04;;;;;;;13.05;7.65;;;;;;;;;;5050406;28;20134;-71
2021/03/11 02:15:35;;;;;;;13.93;7.15;;;;;;;;;;5050780;28;20114;-70
2021/03/11 02:18:18;;;;;;;13.77;7.38;;;;;;;;;;5051045;28;20053;-70
2021/03/11 02:21:05;;;;;;;13.00;7.05;;;;;;;;;;5050363;28;20481;-70
2021/03/11 02:24:03;;;;;;;15.25;7.47;;;;;;;;;;5050403;28;20084;-69
2021/03/11 02:26:58;;;;;;;9.32;5.50;;;;;;;;;;5049866;28;20045;-69
2021/03/11 02:29:30;;;;;;;10.52;5.13;;;;;;;;;;5051636;28;20111;-70
2021/03/11 02:31:58;;;;;;;9.45;4.60;;;;;;;;;;5066990;28;20107;-70
2021/03/11 02:34:26;;;;;;;7.70;4.53;;;;;;;;;;5066914;28;20496;-70
2021/03/11 02:36:54;;;;;;;7.18;4.55;;;;;;;;;;5065895;28;20080;-70
2021/03/11 02:39:21;;;;;;;6.50;4.75;;;;;;;;;;5066907;28;20053;-70
2021/03/11 02:41:47;;;;;;;6.80;4.55;;;;;;;;;;5066602;28;20099;-70
2021/03/11 02:44:14;;;;;;;8.38;5.00;;;;;;;;;;5066895;28;20107;-70
2021/03/11 02:46:40;;;;;;;9.57;4.80;;;;;;;;;;5066005;28;20466;-70
2021/03/11 02:49:06;;;;;;;10.90;5.18;;;;;;;;;;5066681;28;20049;-70
2021/03/11 02:51:32;;;;;;;8.40;5.53;;;;;;;;;;5066646;28;20136;-69
2021/03/11 02:53:59;;;;;;;8.50;5.45;;;;;;;;;;5050063;28;20084;-70
2021/03/11 02:56:25;;;;;;;8.20;5.45;;;;;;;;;;5049435;28;20049;-70
2021/03/11 02:58:52;;;;;;;8.10;5.18;;;;;;;;;;5051209;28;20049;-70
2021/03/11 03:01:18;;;;;;;11.00;5.93;;;;;;;;;;5030718;28;20496;-69
2021/03/11 03:03:45;;;;;;;10.32;5.55;;;;;;;;;;5046681;28;20049;-70
2021/03/11 03:06:11;;;;;;;8.95;5.60;;;;;;;;;;5013291;28;20448;-70
2021/03/11 03:08:38;;;;;;;8.50;5.53;;;;;;;;;;5030333;28;20050;-70
2021/03/11 03:11:04;;;;;;;10.00;5.65;;;;;;;;;;5048161;28;20048;-70
2021/03/11 03:13:30;;;;;;;10.20;5.93;;;;;;;;;;5049818;28;20061;-70
2021/03/11 03:15:56;;;;;;;7.55;5.40;;;;;;;;;;5049145;28;20102;-70
2021/03/11 03:18:23;;;;;;;8.75;5.50;;;;;;;;;;5058421;28;20045;-70
2021/03/11 03:20:49;;;;;;;9.25;6.55;;;;;;;;;;5031063;28;20049;-70
2021/03/11 03:23:15;;;;;;;8.23;5.65;;;;;;;;;;5033354;28;20139;-70
2021/03/11 03:25:47;;;;;;;10.25;6.43;;;;;;;;;;5034293;28;20084;-70
2021/03/11 03:28:14;;;;;;;10.48;6.15;;;;;;;;;;5034847;28;20058;-70
2021/03/11 03:30:41;;;;;;;10.68;6.45;;;;;;;;;;5033532;28;20458;-70
2021/03/11 03:33:07;;;;;;;11.55;6.03;;;;;;;;;;5034786;28;20053;-70
2021/03/11 03:35:34;;;;;;;12.45;7.03;;;;;;;;;;5033799;28;20050;-70
2021/03/11 03:38:00;;;;;;;12.40;6.85;;;;;;;;;;5038331;28;20044;-70
2021/03/11 03:40:27;;;;;;;10.20;6.43;;;;;;;;;;5053080;28;20122;-70
2021/03/11 03:43:13;;;;;;;10.80;6.70;;;;;;;;;;5040217;28;20057;-70
2021/03/11 03:45:42;;;;;;;9.73;6.55;;;;;;;;;;5032607;28;20075;-70
2021/03/11 03:48:12;;;;;;;9.65;6.25;;;;;;;;;;5022312;28;20056;-70
2021/03/11 03:50:38;;;;;;;10.00;6.70;;;;;;;;;;5053260;28;20057;-70
2021/03/11 03:53:08;;;;;;;11.00;6.88;;;;;;;;;;5053036;28;20496;-70
2021/03/11 03:55:35;;;;;;;9.45;6.22;;;;;;;;;;5068848;28;20040;-70
2021/03/11 03:58:01;;;;;;;8.88;6.20;;;;;;;;;;5053129;28;20507;-70
2021/03/11 04:00:27;;;;;;;9.70;6.18;;;;;;;;;;5069648;28;20257;-70
2021/03/11 04:02:54;;;;;;;9.90;6.15;;;;;;;;;;5053657;28;20048;-71
2021/03/11 04:05:22;;;;;;;10.20;6.47;;;;;;;;;;5052487;28;20061;-70
2021/03/11 04:07:48;;;;;;;11.40;6.25;;;;;;;;;;5052960;28;20511;-70
2021/03/11 04:10:14;;;;;;;8.02;5.93;;;;;;;;;;5069501;28;20053;-70
2021/03/11 04:12:41;;;;;;;10.15;6.63;;;;;;;;;;5053883;28;20549;-70
2021/03/11 04:15:08;;;;;;;8.75;5.95;;;;;;;;;;5052567;28;20045;-71
2021/03/11 04:17:34;;;;;;;9.10;5.72;;;;;;;;;;5068870;28;20095;-70
2021/03/11 04:20:05;;;;;;;9.57;6.20;;;;;;;;;;5053895;28;20053;-70
2021/03/11 04:22:31;;;;;;;8.93;5.30;;;;;;;;;;5053720;28;20115;-70
2021/03/11 04:24:58;;;;;;;8.90;5.22;;;;;;;;;;5052559;28;20053;-70
2021/03/11 04:27:24;;;;;;;6.68;5.13;;;;;;;;;;5035278;28;20049;-70
2021/03/11 04:29:51;;;;;;;11.25;6.93;;;;;;;;;;5052226;28;20142;-70
2021/03/11 04:32:17;;;;;;;7.05;5.38;;;;;;;;;;5051466;28;20045;-70
2021/03/11 04:34:44;;;;;;;7.75;4.72;;;;;;;;;;5015539;28;20057;-70
2021/03/11 04:37:10;;;;;;;7.97;4.90;;;;;;;;;;5048049;28;20538;-70
2021/03/11 04:39:37;;;;;;;7.97;4.90;;;;;;;;;;5048740;28;20050;-70
2021/03/11 04:42:03;;;;;;;8.43;4.47;;;;;;;;;;5032199;28;20482;-70
2021/03/11 04:44:29;;;;;;;9.00;5.05;;;;;;;;;;5032362;28;20050;-69
2021/03/11 04:46:56;;;;;;;6.82;4.05;;;;;;;;;;5032741;28;20105;-69
2021/03/11 04:49:24;;;;;;;8.25;4.38;;;;;;;;;;5032552;28;20060;-70
2021/03/11 04:51:51;;;;;;;7.55;4.13;;;;;;;;;;5028903;28;20079;-70
2021/03/11 04:54:17;;;;;;;7.40;3.65;;;;;;;;;;5053069;28;20087;-70
2021/03/11 04:56:53;;;;;;;7.50;3.75;;;;;;;;;;5066807;28;20045;-69
2021/03/11 04:59:20;;;;;;;7.82;3.63;;;;;;;;;;5068487;28;20091;-69
2021/03/11 05:01:52;;;;;;;6.35;2.80;;;;;;;;;;5053475;28;20498;-70
2021/03/11 05:04:19;;;;;;;4.57;2.60;;;;;;;;;;5067340;28;20388;-70
2021/03/11 05:06:45;;;;;;;4.40;2.78;;;;;;;;;;5067811;28;20041;-70
2021/03/11 05:09:11;;;;;;;6.65;3.90;;;;;;;;;;5053193;28;20400;-70
2021/03/11 05:11:37;;;;;;;4.60;2.63;;;;;;;;;;5050742;28;20053;-71
2021/03/11 05:14:04;;;;;;;8.02;3.10;;;;;;;;;;5046858;28;20397;-71
2021/03/11 05:16:30;;;;;;;3.72;2.05;;;;;;;;;;5052419;28;20053;-70
2021/03/11 05:18:56;;;;;;;8.23;2.53;;;;;;;;;;5053003;28;20081;-71
2021/03/11 05:21:22;;;;;;;5.28;2.20;;;;;;;;;;5053027;28;20049;-70
2021/03/11 05:23:57;;;;;;;3.80;2.22;;;;;;;;;;5052827;28;20106;-70
2021/03/11 05:26:23;;;;;;;5.18;2.75;;;;;;;;;;5053306;28;20079;-71
2021/03/11 05:28:49;;;;;;;5.93;2.40;;;;;;;;;;5055230;28;20507;-70
2021/03/11 05:31:15;;;;;;;4.57;2.17;;;;;;;;;;5052746;28;20049;-71
2021/03/11 05:33:42;;;;;;;6.18;3.13;;;;;;;;;;5052384;28;20056;-70
2021/03/11 05:36:08;;;;;;;3.83;2.45;;;;;;;;;;5051694;28;20040;-70
2021/03/11 05:38:34;;;;;;;6.10;2.53;;;;;;;;;;5052236;28;20396;-70
2021/03/11 05:41:00;;;;;;;4.15;2.72;;;;;;;;;;5052359;28;20049;-70
2021/03/11 05:43:27;;;;;;;4.47;2.90;;;;;;;;;;5051115;28;20103;-70
2021/03/11 05:45:53;;;;;;;5.13;2.40;;;;;;;;;;5049219;28;20049;-70
2021/03/11 05:48:19;;;;;;;5.32;2.60;;;;;;;;;;5050975;28;20044;-70
2021/03/11 05:50:45;;;;;;;3.25;2.25;;;;;;;;;;5050422;28;20527;-70
2021/03/11 05:53:19;;;;;;;3.38;2.10;;;;;;;;;;5066495;28;20056;-69
2021/03/11 05:55:45;;;;;;;6.50;2.38;;;;;;;;;;5051214;28;20076;-71
2021/03/11 05:58:11;;;;;;;4.18;2.63;;;;;;;;;;5067502;28;20516;-70
2021/03/11 06:00:37;;;;;;;6.18;2.60;;;;;;;;;;5050630;28;20048;-70
2021/03/11 06:03:04;;;;;;;2.67;2.10;;;;;;;;;;5051900;28;20060;-70
2021/03/11 06:05:30;;;;;;;3.58;2.40;;;;;;;;;;5051238;28;20100;-70
2021/03/11 06:07:56;;;;;;;8.00;3.03;;;;;;;;;;5067325;28;20428;-70
2021/03/11 06:10:23;;;;;;;5.45;2.80;;;;;;;;;;5050502;28;20094;-70
2021/03/11 06:12:50;;;;;;;2.67;2.17;;;;;;;;;;5051407;28;20408;-70
2021/03/11 06:15:27;;;;;;;3.03;2.15;;;;;;;;;;5051301;28;20088;-70
2021/03/11 06:17:53;;;;;;;4.65;2.60;;;;;;;;;;5050984;28;20212;-69
2021/03/11 06:20:19;;;;;;;3.85;2.25;;;;;;;;;;5067161;28;20083;-69
2021/03/11 06:22:46;;;;;;;4.40;2.53;;;;;;;;;;5051389;28;20500;-70
2021/03/11 06:25:13;;;;;;;4.85;2.17;;;;;;;;;;5051400;28;20053;-69
2021/03/11 06:27:56;;;;;;;4.03;2.60;;;;;;;;;;5064533;28;20446;-69
2021/03/11 06:30:29;;;;;;;4.35;2.65;;;;;;;;;;5051561;28;20099;-70
2021/03/11 06:32:55;;;;;;;4.72;2.33;;;;;;;;;;5051662;28;20107;-69
2021/03/11 06:35:22;;;;;;;4.07;2.17;;;;;;;;;;5051183;28;20499;-70
2021/03/11 06:37:48;;;;;;;4.47;2.20;;;;;;;;;;5067058;28;20057;-70
2021/03/11 06:40:22;;;;;;;4.22;1.80;;;;;;;;;;5042288;28;20176;-69
2021/03/11 06:42:49;;;;;;;3.30;2.45;;;;;;;;;;5031538;28;20057;-70
2021/03/11 06:45:28;;;;;;;3.80;1.80;;;;;;;;;;5031286;28;20085;-70
2021/03/11 06:48:20;;;;;;;6.78;2.17;;;;;;;;;;5031455;28;20046;-71
2021/03/11 06:50:46;;;;;;;6.28;2.03;;;;;;;;;;5031562;28;20068;-69
2021/03/11 06:53:12;;;;;;;5.47;1.88;;;;;;;;;;5030370;28;20451;-69
2021/03/11 06:55:38;;;;;;;5.53;2.03;;;;;;;;;;5030581;28;20077;-70
2021/03/11 06:58:25;;;;;;;3.78;1.60;;;;;;;;;;5035038;28;20054;-70
2021/03/11 07:01:08;;;;;;;4.15;2.22;;;;;;;;;;5035614;28;20458;-70
2021/03/11 07:03:47;;;;;;;4.78;1.90;;;;;;;;;;5035596;28;20050;-69
2021/03/11 07:06:31;;;;;;;3.33;1.77;;;;;;;;;;5034893;28;20049;-70
2021/03/11 07:08:58;;;;;;;4.43;2.13;;;;;;;;;;5018297;28;20060;-69
2021/03/11 07:11:25;;;;;;;2.55;1.90;;;;;;;;;;5035019;28;20072;-70
2021/03/11 07:13:53;;;;;;;4.38;2.05;;;;;;;;;;5065240;22;20488;-72
2021/03/11 07:16:22;;;;;;;3.03;1.90;;;;;;;;;;5034409;28;20056;-72
2021/03/11 07:18:50;;;;;;;3.55;1.90;;;;;;;;;;5001234;28;20526;-72
2021/03/11 07:21:43;;;;;;;5.55;2.13;;;;;;;;;;5016919;28;20561;-72
2021/03/11 07:24:10;;;;;;;3.58;2.35;;;;;;;;;;5015561;28;20054;-72
2021/03/11 07:26:36;;;;;;;1.70;1.40;;;;;;;;;;4997103;28;20042;-73
2021/03/11 07:29:19;;;;;;;5.88;1.75;;;;;;;;;;4997532;28;20370;-71
2021/03/11 07:31:53;;;;;;;10.50;3.28;;;;;;;;;;5014803;28;20057;-71
2021/03/11 07:34:25;;;;;;;4.88;2.17;;;;;;;;;;5015199;28;20053;-71
2021/03/11 07:36:51;;;;;;;6.57;2.13;;;;;;;;;;4997613;28;20050;-71
2021/03/11 07:39:18;;;;;;;2.42;1.75;;;;;;;;;;4987814;28;21021;-71
2021/03/11 07:41:44;;;;;;;4.50;1.98;;;;;;;;;;4970994;28;20050;-70
2021/03/11 07:44:10;;;;;;;4.75;1.35;;;;;;;;;;4990678;28;20049;-70
2021/03/11 07:46:36;;;;;;;4.22;1.40;;;;;;;;;;4980360;28;20456;-70
2021/03/11 07:49:04;;;;;;;3.28;1.55;;;;;;;;;;5001068;28;20078;-71
2021/03/11 07:51:30;;;;;;;2.05;1.50;;;;;;;;;;4981555;28;20068;-71
2021/03/11 07:53:56;;;;;;;4.72;1.70;;;;;;;;;;4991274;28;20050;-70
2021/03/11 07:56:22;;;;;;;3.10;1.48;;;;;;;;;;4976714;28;20069;-71
2021/03/11 07:59:05;;;;;;;7.88;1.60;;;;;;;;;;5004729;28;20129;-70
2021/03/11 08:01:31;;;;;;;2.58;1.40;;;;;;;;;;4982440;28;20050;-70
2021/03/11 08:04:00;;;;;;;3.33;1.55;;;;;;;;;;4978204;28;20541;-72
2021/03/11 08:06:28;;;;;;;3.83;1.45;;;;;;;;;;4975181;28;20042;-74
2021/03/11 08:08:54;;;;;;;4.47;1.63;;;;;;;;;;4988581;28;20057;-72
2021/03/11 08:11:35;;;;;;;3.78;1.40;;;;;;;;;;4999848;28;20456;-72
2021/03/11 08:14:17;;;;;;;3.00;1.58;;;;;;;;;;4982188;28;20046;-75
2021/03/11 08:16:43;;;;;;;3.03;1.40;;;;;;;;;;4997008;28;20069;-73
2021/03/11 08:19:10;;;;;;;2.97;1.98;;;;;;;;;;4981997;28;20056;-76
2021/03/11 08:21:46;;;;;;;2.75;1.50;;;;;;;;;;5001456;28;20080;-76
2021/03/11 08:24:47;;;;;;;6.80;1.73;;;;;;;;;;5000264;28;20046;-73
2021/03/11 08:27:30;;;;;;;3.67;1.38;;;;;;;;;;4984764;28;20049;-77
2021/03/11 08:30:00;;;;;;;4.63;1.63;;;;;;;;;;4993944;28;20054;-70
2021/03/11 08:32:49;;;;;;;4.22;2.08;;;;;;;;;;5005671;28;20571;-75
2021/03/11 08:35:29;;;;;;;4.25;1.65;;;;;;;;;;4977733;28;20085;-73
2021/03/11 08:38:01;;;;;;;3.22;1.20;;;;;;;;;;5002303;28;20077;-76
2021/03/11 08:40:38;;;;;;;2.40;1.38;;;;;;;;;;4965809;28;20046;-74
2021/03/11 08:43:05;;;;;;;3.42;1.20;;;;;;;;;;5000838;28;20073;-70
2021/03/11 08:45:37;;;;;;;4.50;1.73;;;;;;;;;;4998902;28;20132;-71
2021/03/11 08:48:11;;;;;;;3.33;1.02;;;;;;;;;;5000799;28;20545;-71
2021/03/11 08:50:38;;;;;;;3.38;0.95;;;;;;;;;;4999609;28;20061;-74
2021/03/11 08:53:04;;;;;;;2.22;1.10;;;;;;;;;;4967572;28;20133;-75
2021/03/11 08:55:40;;;;;;;3.00;0.90;;;;;;;;;;4998637;28;20116;-73
2021/03/11 08:58:27;;;;;;;1.35;1.00;;;;;;;;;;4999250;28;20101;-70
2021/03/11 09:01:01;;;;;;;1.55;1.00;;;;;;;;;;4998487;28;20417;-71
2021/03/11 09:03:48;;;;;;;1.88;1.17;;;;;;;;;;5000678;28;20050;-70
2021/03/11 09:06:14;;;;;;;2.60;0.98;;;;;;;;;;4999267;28;20596;-69
2021/03/11 09:08:52;;;;;;;5.25;1.10;;;;;;;;;;4999266;28;20078;-70
2021/03/11 09:11:22;;;;;;;5.43;1.20;;;;;;;;;;5001167;28;20053;-70
2021/03/11 09:13:53;;;;;;;0.98;0.77;;;;;;;;;;5001019;28;20094;-70
2021/03/11 09:16:26;;;;;;;3.28;1.17;;;;;;;;;;4999736;28;20459;-73
2021/03/11 09:18:54;;;;;;;2.05;0.90;;;;;;;;;;4981749;28;20062;-73
2021/03/11 09:21:20;;;;;;;1.75;1.02;;;;;;;;;;4988258;28;20050;-72
2021/03/11 09:23:47;;;;;;;2.60;1.00;;;;;;;;;;5005146;28;20093;-71
2021/03/11 09:26:28;;;;;;;3.40;1.10;;;;;;;;;;4997645;28;20097;-71
2021/03/11 09:28:55;;;;;;;2.85;1.17;;;;;;;;;;5000037;28;20117;-72
2021/03/11 09:31:26;;;;;;;2.35;1.27;;;;;;;;;;4981860;28;20058;-70
2021/03/11 09:33:54;;;;;;;1.08;0.90;;;;;;;;;;4965202;28;20054;-72
2021/03/11 09:36:20;;;;;;;3.78;1.67;;;;;;;;;;5005083;28;20046;-73
2021/03/11 09:38:48;;;;;;;3.03;2.50;;;;;;;;;;4997602;28;20065;-72
2021/03/11 09:41:19;;;;;;;2.10;0.68;;;;;;;;;;5002710;28;20108;-72
2021/03/11 09:43:45;;;;;;;2.65;0.88;;;;;;;;;;4980517;28;20058;-72
2021/03/11 09:46:12;;;;;;;2.70;1.27;;;;;;;;;;4998937;28;20042;-72
2021/03/11 09:48:40;;;;;;;3.05;1.20;;;;;;;;;;5000290;28;20133;-72
2021/03/11 09:51:11;;;;;;;3.00;1.00;;;;;;;;;;4983964;28;20141;-72
2021/03/11 09:53:42;;;;;;;1.35;0.80;;;;;;;;;;4998804;28;20050;-70
2021/03/11 09:56:14;;;;;;;2.67;0.90;;;;;;;;;;5000668;28;20517;-71
2021/03/11 09:58:44;;;;;;;2.97;1.37;;;;;;;;;;4983246;28;20061;-72
2021/03/11 10:01:10;;;;;;;2.10;0.80;;;;;;;;;;4980557;28;20309;-72
2021/03/11 10:03:37;;;;;;;1.50;1.40;;;;;;;;;;4965364;28;20065;-71
2021/03/11 10:06:06;;;;;;;1.13;1.00;;;;;;;;;;4997195;28;20513;-70
2021/03/11 10:08:38;;;;;;;4.63;2.65;;;;;;;;;;4999001;28;20108;-70
2021/03/11 10:11:18;;;;;;;3.05;1.10;;;;;;;;;;4999109;28;20096;-72
2021/03/11 10:13:49;;;;;;;2.63;1.73;;;;;;;;;;4997327;28;20448;-73
2021/03/11 10:16:19;;;;;;;2.75;1.40;;;;;;;;;;5002664;28;20125;-73
2021/03/11 10:19:01;;;;;;;1.15;1.00;;;;;;;;;;4981465;28;20065;-70
2021/03/11 10:21:28;;;;;;;5.50;2.40;;;;;;;;;;4980403;28;20046;-71
2021/03/11 10:23:54;;;;;;;0.75;0.73;;;;;;;;;;4998932;28;20053;-72
2021/03/11 10:26:25;;;;;;;4.43;0.80;;;;;;;;;;4983201;28;20042;-71
2021/03/11 10:29:00;;;;;;;8.52;1.10;;;;;;;;;;4984017;28;20058;-71
2021/03/11 10:31:26;;;;;;;2.47;0.77;;;;;;;;;;4967613;28;20046;-70
2021/03/11 10:34:09;;;;;;;1.02;0.63;;;;;;;;;;4996856;28;20129;-73
2021/03/11 10:36:36;;;;;;;2.63;0.73;;;;;;;;;;5003174;28;20088;-71
2021/03/11 10:39:07;;;;;;;4.88;1.00;;;;;;;;;;4997888;28;20057;-70
2021/03/11 10:41:36;;;;;;;2.25;0.82;;;;;;;;;;4997290;28;20141;-70
2021/03/11 10:44:05;;;;;;;3.20;0.80;;;;;;;;;;5001285;28;20050;-70
2021/03/11 10:46:32;;;;;;;3.90;1.08;;;;;;;;;;4998332;28;20042;-71
2021/03/11 10:48:58;;;;;;;4.15;2.13;;;;;;;;;;4998890;28;20057;-71
2021/03/11 10:51:27;;;;;;;0.75;0.65;;;;;;;;;;4997262;28;20046;-71
2021/03/11 10:53:54;;;;;;;2.95;0.75;;;;;;;;;;4998613;28;20081;-71
2021/03/11 10:56:20;;;;;;;1.85;0.63;;;;;;;;;;4996646;28;20049;-71
2021/03/11 10:58:47;;;;;;;2.45;0.70;;;;;;;;;;4998587;28;20058;-70
2021/03/11 11:01:29;;;;;;;1.80;0.60;;;;;;;;;;4998823;28;20046;-71
2021/03/11 11:03:56;;;;;;;1.77;0.80;;;;;;;;;;4996735;28;20054;-70
2021/03/11 11:06:23;;;;;;;2.47;0.73;;;;;;;;;;4999655;28;20045;-70
2021/03/11 11:08:49;;;;;;;1.38;0.60;;;;;;;;;;4997225;28;20053;-71
2021/03/11 11:11:17;;;;;;;2.85;0.63;;;;;;;;;;4998759;28;20082;-71
2021/03/11 11:13:44;;;;;;;2.42;0.60;;;;;;;;;;4996866;28;20062;-71
2021/03/11 11:16:13;;;;;;;0.77;0.77;;;;;;;;;;4997896;28;20444;-70
2021/03/11 11:18:40;;;;;;;0.82;0.70;;;;;;;;;;4997172;28;20167;-71
2021/03/11 11:21:06;;;;;;;1.02;0.65;;;;;;;;;;4998163;28;20053;-70
2021/03/11 11:23:33;;;;;;;0.98;0.73;;;;;;;;;;4998139;28;20058;-71
2021/03/11 11:26:00;;;;;;;1.58;0.95;;;;;;;;;;4996765;28;20051;-70
2021/03/11 11:28:26;;;;;;;2.33;0.70;;;;;;;;;;4998148;28;20050;-71
2021/03/11 11:30:52;;;;;;;1.10;0.60;;;;;;;;;;4996930;28;20135;-70
2021/03/11 11:33:18;;;;;;;1.33;0.80;;;;;;;;;;4998241;28;20089;-71
2021/03/11 11:35:45;;;;;;;1.10;0.82;;;;;;;;;;4999410;28;20447;-70
2021/03/11 11:38:11;;;;;;;0.65;0.60;;;;;;;;;;5000702;28;20081;-71
2021/03/11 11:40:38;;;;;;;1.63;0.98;;;;;;;;;;4996080;28;20113;-71
2021/03/11 11:43:04;;;;;;;0.80;0.70;;;;;;;;;;5000130;28;20131;-70
2021/03/11 11:45:30;;;;;;;0.85;0.80;;;;;;;;;;4999486;28;20112;-70
2021/03/11 11:47:57;;;;;;;0.93;0.73;;;;;;;;;;5002067;28;20046;-70
2021/03/11 11:50:28;;;;;;;2.70;0.60;;;;;;;;;;5000444;28;20050;-70
2021/03/11 11:52:54;;;;;;;0.50;0.50;;;;;;;;;;5001401;28;20501;-70
2021/03/11 11:55:20;;;;;;;1.83;0.80;;;;;;;;;;4999505;28;20475;-71
2021/03/11 11:57:46;;;;;;;0.40;0.30;;;;;;;;;;5001625;28;20148;-73
2021/03/11 12:00:14;;;;;;;0.63;0.60;;;;;;;;;;5000200;28;20058;-74
2021/03/11 12:02:41;;;;;;;1.58;0.60;;;;;;;;;;5000855;28;20128;-72
2021/03/11 12:05:07;;;;;;;1.27;0.60;;;;;;;;;;5000528;28;20053;-75
2021/03/11 12:07:35;;;;;;;2.58;1.30;;;;;;;;;;4999976;28;20050;-74
2021/03/11 12:10:03;;;;;;;2.83;0.60;;;;;;;;;;4983999;28;20131;-74
2021/03/11 12:12:30;;;;;;;2.70;0.77;;;;;;;;;;4999403;28;20148;-73
2021/03/11 12:14:57;;;;;;;1.42;0.40;;;;;;;;;;4962172;28;20456;-72
2021/03/11 12:17:24;;;;;;;1.80;0.85;;;;;;;;;;4998614;28;20050;-75
2021/03/11 12:19:51;;;;;;;0.60;0.60;;;;;;;;;;4952908;28;20042;-73
2021/03/11 12:22:17;;;;;;;0.82;0.30;;;;;;;;;;4999421;28;20497;-72
2021/03/11 12:24:44;;;;;;;0.90;0.63;;;;;;;;;;5000535;28;20112;-71
2021/03/11 12:27:10;;;;;;;1.50;0.50;;;;;;;;;;4999059;28;20468;-70
2021/03/11 12:29:36;;;;;;;0.90;0.57;;;;;;;;;;5002461;28;20054;-70
2021/03/11 12:32:03;;;;;;;2.20;0.57;;;;;;;;;;4999484;28;20061;-70
2021/03/11 12:34:33;;;;;;;1.67;0.45;;;;;;;;;;5002572;28;20181;-73
2021/03/11 12:37:01;;;;;;;0.63;0.57;;;;;;;;;;5005569;28;20042;-73
2021/03/11 12:39:28;;;;;;;0.60;0.60;;;;;;;;;;5000346;28;20088;-73
2021/03/11 12:41:54;;;;;;;0.82;0.35;;;;;;;;;;5003821;28;20053;-71
2021/03/11 12:44:20;;;;;;;1.17;0.70;;;;;;;;;;5005611;28;20497;-71
2021/03/11 12:46:46;;;;;;;0.68;0.50;;;;;;;;;;5005074;28;20065;-71
2021/03/11 12:49:12;;;;;;;0.32;0.32;;;;;;;;;;5005183;28;20069;-72
2021/03/11 12:51:39;;;;;;;2.58;0.60;;;;;;;;;;5004162;28;20045;-73
2021/03/11 12:54:05;;;;;;;0.50;0.50;;;;;;;;;;5004402;28;20053;-72
2021/03/11 12:56:31;;;;;;;0.60;0.52;;;;;;;;;;5004165;28;20159;-71
2021/03/11 12:58:57;;;;;;;0.63;0.40;;;;;;;;;;5004962;28;20057;-72
2021/03/11 13:01:23;;;;;;;0.50;0.40;;;;;;;;;;5004745;28;20053;-71
2021/03/11 13:03:50;;;;;;;0.40;0.30;;;;;;;;;;5003575;28;20050;-69
2021/03/11 13:06:18;;;;;;;2.40;0.50;;;;;;;;;;5004717;28;20042;-71
2021/03/11 13:08:50;;;;;;;0.50;0.38;;;;;;;;;;5003186;28;20057;-73
2021/03/11 13:11:17;;;;;;;0.50;0.50;;;;;;;;;;4984382;28;20081;-70
2021/03/11 13:13:43;;;;;;;3.70;0.88;;;;;;;;;;5054547;23;20446;-69
2021/03/11 13:16:09;;;;;;;0.40;0.40;;;;;;;;;;5038936;28;20487;-69
2021/03/11 13:18:36;;;;;;;0.22;0.22;;;;;;;;;;5042228;28;20063;-70
2021/03/11 13:21:03;;;;;;;1.33;0.40;;;;;;;;;;5042713;28;20136;-72
2021/03/11 13:23:29;;;;;;;1.08;0.35;;;;;;;;;;5041904;28;20049;-71
2021/03/11 13:25:56;;;;;;;0.65;0.40;;;;;;;;;;5026582;28;20049;-71
2021/03/11 13:28:22;;;;;;;3.40;0.52;;;;;;;;;;5041721;28;20049;-72
2021/03/11 13:30:51;;;;;;;0.60;0.50;;;;;;;;;;5041452;28;20531;-72
2021/03/11 13:33:25;;;;;;;0.70;0.40;;;;;;;;;;5039630;28;20049;-71
2021/03/11 13:35:52;;;;;;;0.90;0.52;;;;;;;;;;5032825;28;20080;-72
2021/03/11 13:38:19;;;;;;;0.82;0.50;;;;;;;;;;5013036;28;20049;-72
2021/03/11 13:40:45;;;;;;;0.90;0.50;;;;;;;;;;5036678;28;20107;-71
2021/03/11 13:43:11;;;;;;;0.80;0.45;;;;;;;;;;5053419;28;20053;-73
2021/03/11 13:45:37;;;;;;;0.52;0.40;;;;;;;;;;5027330;28;20499;-70
2021/03/11 13:48:04;;;;;;;0.55;0.30;;;;;;;;;;5038351;28;20056;-75
2021/03/11 13:50:31;;;;;;;0.30;0.30;;;;;;;;;;5021701;28;20057;-70
2021/03/11 13:52:57;;;;;;;1.30;0.40;;;;;;;;;;5053414;28;20275;-70
2021/03/11 13:55:23;;;;;;;1.30;0.50;;;;;;;;;;5029540;28;20131;-68
2021/03/11 13:57:49;;;;;;;0.38;0.30;;;;;;;;;;5053866;28;20049;-68
2021/03/11 14:00:16;;;;;;;2.25;0.52;;;;;;;;;;5039599;28;20053;-69
2021/03/11 14:02:42;;;;;;;0.95;0.43;;;;;;;;;;5038784;28;20049;-70
2021/03/11 14:05:10;;;;;;;0.95;0.40;;;;;;;;;;5033577;28;20055;-70
2021/03/11 14:07:36;;;;;;;0.77;0.40;;;;;;;;;;5045627;28;20045;-69
2021/03/11 14:10:04;;;;;;;1.67;0.60;;;;;;;;;;5055791;28;20053;-70
2021/03/11 14:12:30;;;;;;;0.60;0.60;;;;;;;;;;5060053;28;20079;-70
2021/03/11 14:14:56;;;;;;;0.50;0.20;;;;;;;;;;5074764;28;20041;-68
2021/03/11 14:17:22;;;;;;;0.40;0.40;;;;;;;;;;5077374;28;20049;-69
2021/03/11 14:19:49;;;;;;;1.23;0.35;;;;;;;;;;5057411;28;20052;-70
2021/03/11 14:22:15;;;;;;;1.50;0.75;;;;;;;;;;5050882;28;20045;-69
2021/03/11 14:24:41;;;;;;;0.40;0.40;;;;;;;;;;5053668;28;20111;-69
2021/03/11 14:27:07;;;;;;;2.67;0.40;;;;;;;;;;5053063;28;20533;-70
2021/03/11 14:29:33;;;;;;;1.35;0.47;;;;;;;;;;5049850;28;20049;-70
2021/03/11 14:32:00;;;;;;;1.00;0.47;;;;;;;;;;5053664;28;20051;-69
2021/03/11 14:34:26;;;;;;;1.13;0.55;;;;;;;;;;5036670;28;20067;-70
2021/03/11 14:36:53;;;;;;;0.50;0.47;;;;;;;;;;5051280;28;20041;-69
2021/03/11 14:39:19;;;;;;;1.20;0.73;;;;;;;;;;5055953;28;20103;-69
2021/03/11 14:41:45;;;;;;;0.65;0.50;;;;;;;;;;5051156;28;20084;-70
2021/03/11 14:44:11;;;;;;;1.15;0.40;;;;;;;;;;5058515;28;20079;-70
2021/03/11 14:46:38;;;;;;;0.38;0.20;;;;;;;;;;5037496;28;20049;-70
2021/03/11 14:49:05;;;;;;;0.50;0.32;;;;;;;;;;5038656;28;20045;-70